sensor_id;sensor_type;location;lat;lon;timestamp;pressure;altitude;pressure_sealevel;temperature;humidity
66945;BME280;53853;51.982;5.928;2022-12-20T00:02:05;101277.56;;;10.89;72.17
66945;BME280;53853;51.982;5.928;2022-12-20T00:04:36;101280.91;;;10.91;72.17
66945;BME280;53853;51.982;5.928;2022-12-20T00:07:08;101249.94;;;10.90;72.14
66945;BME280;53853;51.982;5.928;2022-12-20T00:09:38;101251.91;;;10.88;72.08
66945;BME280;53853;51.982;5.928;2022-12-20T00:12:08;101257.22;;;10.88;71.88
66945;BME280;53853;51.982;5.928;2022-12-20T00:14:38;101254.72;;;10.86;71.91
66945;BME280;53853;51.982;5.928;2022-12-20T00:17:08;101246.84;;;10.85;71.97
66945;BME280;53853;51.982;5.928;2022-12-20T00:19:38;101245.28;;;10.82;71.97
66945;BME280;53853;51.982;5.928;2022-12-20T00:22:11;101259.31;;;10.84;71.80
66945;BME280;53853;51.982;5.928;2022-12-20T00:24:41;101258.34;;;10.85;72.00
66945;BME280;53853;51.982;5.928;2022-12-20T00:27:11;101250.50;;;10.84;71.89
66945;BME280;53853;51.982;5.928;2022-12-20T00:29:40;101241.53;;;10.85;72.13
66945;BME280;53853;51.982;5.928;2022-12-20T00:32:11;101253.41;;;10.91;71.72
66945;BME280;53853;51.982;5.928;2022-12-20T00:34:41;101246.97;;;10.93;71.73
66945;BME280;53853;51.982;5.928;2022-12-20T00:37:13;101243.75;;;10.99;71.23
66945;BME280;53853;51.982;5.928;2022-12-20T00:39:43;101251.03;;;11.07;70.94
66945;BME280;53853;51.982;5.928;2022-12-20T00:42:13;101242.03;;;11.08;71.20
66945;BME280;53853;51.982;5.928;2022-12-20T00:44:45;101232.03;;;11.10;71.28
66945;BME280;53853;51.982;5.928;2022-12-20T00:47:15;101249.19;;;11.17;70.81
66945;BME280;53853;51.982;5.928;2022-12-20T00:49:45;101231.19;;;11.19;70.98
66945;BME280;53853;51.982;5.928;2022-12-20T00:52:17;101250.16;;;11.26;70.37
66945;BME280;53853;51.982;5.928;2022-12-20T00:54:47;101235.53;;;11.30;70.38
66945;BME280;53853;51.982;5.928;2022-12-20T00:57:17;101251.94;;;11.35;70.06
66945;BME280;53853;51.982;5.928;2022-12-20T00:59:47;101246.16;;;11.40;70.07
66945;BME280;53853;51.982;5.928;2022-12-20T01:02:17;101238.72;;;11.44;70.11
66945;BME280;53853;51.982;5.928;2022-12-20T01:04:48;101231.13;;;11.49;69.79
66945;BME280;53853;51.982;5.928;2022-12-20T01:07:21;101237.81;;;11.53;69.71
66945;BME280;53853;51.982;5.928;2022-12-20T01:09:52;101243.88;;;11.55;69.84
66945;BME280;53853;51.982;5.928;2022-12-20T01:12:22;101246.41;;;11.56;69.49
66945;BME280;53853;51.982;5.928;2022-12-20T01:14:52;101227.56;;;11.58;69.62
66945;BME280;53853;51.982;5.928;2022-12-20T01:17:22;101223.75;;;11.60;69.42
66945;BME280;53853;51.982;5.928;2022-12-20T01:19:52;101223.47;;;11.64;68.92
66945;BME280;53853;51.982;5.928;2022-12-20T01:22:24;101228.66;;;11.65;69.15
66945;BME280;53853;51.982;5.928;2022-12-20T01:24:54;101228.66;;;11.65;68.96
66945;BME280;53853;51.982;5.928;2022-12-20T01:27:24;101237.91;;;11.71;68.58
66945;BME280;53853;51.982;5.928;2022-12-20T01:29:54;101241.56;;;11.70;68.79
66945;BME280;53853;51.982;5.928;2022-12-20T01:32:24;101238.19;;;11.68;69.07
66945;BME280;53853;51.982;5.928;2022-12-20T01:34:54;101246.06;;;11.69;68.82
66945;BME280;53853;51.982;5.928;2022-12-20T01:37:27;101248.59;;;11.71;69.01
66945;BME280;53853;51.982;5.928;2022-12-20T01:39:57;101235.25;;;11.71;69.41
66945;BME280;53853;51.982;5.928;2022-12-20T01:42:27;101235.94;;;11.73;69.73
66945;BME280;53853;51.982;5.928;2022-12-20T01:44:58;101242.97;;;11.74;69.48
66945;BME280;53853;51.982;5.928;2022-12-20T01:47:31;101248.31;;;11.74;69.61
66945;BME280;53853;51.982;5.928;2022-12-20T01:50:05;101239.56;;;11.72;69.95
66945;BME280;53853;51.982;5.928;2022-12-20T01:52:39;101250.25;;;11.72;70.31
66945;BME280;53853;51.982;5.928;2022-12-20T01:55:15;101240.59;;;11.71;70.63
66945;BME280;53853;51.982;5.928;2022-12-20T01:57:49;101239.88;;;11.69;71.12
66945;BME280;53853;51.982;5.928;2022-12-20T02:00:22;101226.84;;;11.66;71.47
66945;BME280;53853;51.982;5.928;2022-12-20T02:02:52;101229.81;;;11.63;72.06
66945;BME280;53853;51.982;5.928;2022-12-20T02:05:23;101233.59;;;11.60;72.63
66945;BME280;53853;51.982;5.928;2022-12-20T02:07:56;101246.41;;;11.56;73.41
66945;BME280;53853;51.982;5.928;2022-12-20T02:10:33;101237.13;;;11.51;73.84
66945;BME280;53853;51.982;5.928;2022-12-20T02:13:11;101230.44;;;11.47;74.07
66945;BME280;53853;51.982;5.928;2022-12-20T02:15:50;101231.84;;;11.41;74.74
66945;BME280;53853;51.982;5.928;2022-12-20T02:18:24;101232.13;;;11.38;74.80
66945;BME280;53853;51.982;5.928;2022-12-20T02:21:01;101224.56;;;11.33;75.10
66945;BME280;53853;51.982;5.928;2022-12-20T02:27:06;101202.13;;;11.26;76.26
66945;BME280;53853;51.982;5.928;2022-12-20T02:30:06;101195.25;;;11.23;76.54
66945;BME280;53853;51.982;5.928;2022-12-20T02:32:40;101185.84;;;11.19;76.48
66945;BME280;53853;51.982;5.928;2022-12-20T02:35:18;101182.47;;;11.17;76.42
66945;BME280;53853;51.982;5.928;2022-12-20T02:37:50;101183.59;;;11.15;76.47
66945;BME280;53853;51.982;5.928;2022-12-20T02:40:23;101174.78;;;11.14;76.19
66945;BME280;53853;51.982;5.928;2022-12-20T02:42:57;101184.59;;;11.14;76.30
66945;BME280;53853;51.982;5.928;2022-12-20T02:45:33;101187.28;;;11.14;76.41
66945;BME280;53853;51.982;5.928;2022-12-20T02:48:05;101187.41;;;11.12;76.66
66945;BME280;53853;51.982;5.928;2022-12-20T02:50:38;101196.25;;;11.13;77.26
66945;BME280;53853;51.982;5.928;2022-12-20T02:53:09;101192.03;;;11.10;78.11
66945;BME280;53853;51.982;5.928;2022-12-20T02:55:46;101180.41;;;11.11;78.03
66945;BME280;53853;51.982;5.928;2022-12-20T02:58:22;101175.88;;;11.12;77.83
66945;BME280;53853;51.982;5.928;2022-12-20T03:01:00;101177.72;;;11.11;77.74
66945;BME280;53853;51.982;5.928;2022-12-20T03:03:32;101173.22;;;11.12;77.69
66945;BME280;53853;51.982;5.928;2022-12-20T03:06:03;101171.56;;;11.11;77.69
66945;BME280;53853;51.982;5.928;2022-12-20T03:08:33;101171.56;;;11.11;77.53
66945;BME280;53853;51.982;5.928;2022-12-20T03:11:03;101169.88;;;11.10;77.34
66945;BME280;53853;51.982;5.928;2022-12-20T03:13:33;101180.41;;;11.11;77.34
66945;BME280;53853;51.982;5.928;2022-12-20T03:16:10;101170.69;;;11.10;77.55
66945;BME280;53853;51.982;5.928;2022-12-20T03:18:40;101173.53;;;11.09;77.39
66945;BME280;53853;51.982;5.928;2022-12-20T03:21:12;101174.38;;;11.09;77.37
66945;BME280;53853;51.982;5.928;2022-12-20T03:23:42;101168.22;;;11.09;77.75
66945;BME280;53853;51.982;5.928;2022-12-20T03:26:12;101162.69;;;11.10;77.32
66945;BME280;53853;51.982;5.928;2022-12-20T03:28:47;101158.38;;;11.09;77.32
66945;BME280;53853;51.982;5.928;2022-12-20T03:31:23;101162.69;;;11.10;77.69
66945;BME280;53853;51.982;5.928;2022-12-20T03:33:55;101165.38;;;11.10;77.80
66945;BME280;53853;51.982;5.928;2022-12-20T03:36:25;101168.91;;;11.11;77.35
66945;BME280;53853;51.982;5.928;2022-12-20T03:38:59;101172.41;;;11.11;77.41
66945;BME280;53853;51.982;5.928;2022-12-20T03:41:32;101170.69;;;11.10;77.30
66945;BME280;53853;51.982;5.928;2022-12-20T03:44:02;101161.72;;;11.11;77.31
66945;BME280;53853;51.982;5.928;2022-12-20T03:46:35;101169.03;;;11.09;77.35
66945;BME280;53853;51.982;5.928;2022-12-20T03:49:05;101164.69;;;11.08;77.26
66945;BME280;53853;51.982;5.928;2022-12-20T03:51:42;101155.69;;;11.09;77.11
66945;BME280;53853;51.982;5.928;2022-12-20T03:54:12;101139.00;;;11.07;77.19
66945;BME280;53853;51.982;5.928;2022-12-20T03:57:05;101139.00;;;11.07;77.18
66945;BME280;53853;51.982;5.928;2022-12-20T03:59:35;101143.34;;;11.08;77.11
66945;BME280;53853;51.982;5.928;2022-12-20T04:02:10;101132.69;;;11.08;77.20
66945;BME280;53853;51.982;5.928;2022-12-20T04:04:41;101132.53;;;11.10;77.29
66945;BME280;53853;51.982;5.928;2022-12-20T04:07:12;101141.22;;;11.12;77.33
66945;BME280;53853;51.982;5.928;2022-12-20T04:09:45;101146.97;;;11.17;77.28
66945;BME280;53853;51.982;5.928;2022-12-20T04:12:16;101150.88;;;11.22;77.16
66945;BME280;53853;51.982;5.928;2022-12-20T04:14:46;101142.72;;;11.24;77.29
66945;BME280;53853;51.982;5.928;2022-12-20T04:17:19;101145.97;;;11.28;77.09
66945;BME280;53853;51.982;5.928;2022-12-20T04:19:49;101129.63;;;11.31;76.96
66945;BME280;53853;51.982;5.928;2022-12-20T04:22:19;101115.31;;;11.32;76.74
66945;BME280;53853;51.982;5.928;2022-12-20T04:24:56;101129.03;;;11.37;76.73
66945;BME280;53853;51.982;5.928;2022-12-20T04:27:31;101124.28;;;11.40;76.63
66945;BME280;53853;51.982;5.928;2022-12-20T04:30:06;101124.13;;;11.42;76.58
66945;BME280;53853;51.982;5.928;2022-12-20T04:32:38;101117.78;;;11.43;76.42
66945;BME280;53853;51.982;5.928;2022-12-20T04:35:09;101117.47;;;11.46;76.22
66945;BME280;53853;51.982;5.928;2022-12-20T04:37:42;101132.38;;;11.49;76.25
66945;BME280;53853;51.982;5.928;2022-12-20T04:40:12;101130.53;;;11.49;76.13
66945;BME280;53853;51.982;5.928;2022-12-20T04:42:47;101134.59;;;11.53;75.81
66945;BME280;53853;51.982;5.928;2022-12-20T04:45:17;101118.44;;;11.55;75.74
66945;BME280;53853;51.982;5.928;2022-12-20T04:47:51;101109.56;;;11.54;75.80
66945;BME280;53853;51.982;5.928;2022-12-20T04:50:27;101111.25;;;11.55;75.79
66945;BME280;53853;51.982;5.928;2022-12-20T04:52:57;101108.59;;;11.55;75.78
66945;BME280;53853;51.982;5.928;2022-12-20T04:55:50;101103.25;;;11.55;75.83
66945;BME280;53853;51.982;5.928;2022-12-20T04:58:20;101102.56;;;11.53;75.89
66945;BME280;53853;51.982;5.928;2022-12-20T05:00:51;101101.09;;;11.59;75.75
66945;BME280;53853;51.982;5.928;2022-12-20T05:03:27;101097.31;;;11.62;75.69
66945;BME280;53853;51.982;5.928;2022-12-20T05:05:57;101102.50;;;11.63;75.69
66945;BME280;53853;51.982;5.928;2022-12-20T05:08:27;101118.22;;;11.66;75.70
66945;BME280;53853;51.982;5.928;2022-12-20T05:10:57;101119.88;;;11.67;76.04
66945;BME280;53853;51.982;5.928;2022-12-20T05:13:28;101120.59;;;11.69;76.39
66945;BME280;53853;51.982;5.928;2022-12-20T05:15:58;101116.22;;;11.68;76.39
66945;BME280;53853;51.982;5.928;2022-12-20T05:18:35;101117.91;;;11.69;76.34
66945;BME280;53853;51.982;5.928;2022-12-20T05:21:06;101116.06;;;11.70;76.53
66945;BME280;53853;51.982;5.928;2022-12-20T05:23:51;101117.06;;;11.69;76.70
66945;BME280;53853;51.982;5.928;2022-12-20T05:26:47;101107.00;;;11.63;77.06
66945;BME280;53853;51.982;5.928;2022-12-20T05:29:18;101102.34;;;11.65;78.04
66945;BME280;53853;51.982;5.928;2022-12-20T05:31:48;101102.50;;;11.63;78.16
66945;BME280;53853;51.982;5.928;2022-12-20T05:34:21;101102.66;;;11.62;78.38
66945;BME280;53853;51.982;5.928;2022-12-20T05:36:53;101093.97;;;11.59;79.07
66945;BME280;53853;51.982;5.928;2022-12-20T05:39:27;101100.44;;;11.57;78.72
66945;BME280;53853;51.982;5.928;2022-12-20T05:42:00;101088.06;;;11.56;79.05
66945;BME280;53853;51.982;5.928;2022-12-20T05:44:31;101093.41;;;11.56;78.96
66945;BME280;53853;51.982;5.928;2022-12-20T05:47:01;101084.56;;;11.55;78.88
66945;BME280;53853;51.982;5.928;2022-12-20T05:49:36;101078.38;;;11.55;78.85
66945;BME280;53853;51.982;5.928;2022-12-20T05:52:09;101078.53;;;11.53;78.93
66945;BME280;53853;51.982;5.928;2022-12-20T05:54:41;101072.19;;;11.54;78.96
66945;BME280;53853;51.982;5.928;2022-12-20T05:57:18;101070.53;;;11.53;79.13
66945;BME280;53853;51.982;5.928;2022-12-20T05:59:48;101071.38;;;11.54;79.03
66945;BME280;53853;51.982;5.928;2022-12-20T06:02:23;101064.34;;;11.53;78.77
66945;BME280;53853;51.982;5.928;2022-12-20T06:05:03;101052.31;;;11.49;78.81
66945;BME280;53853;51.982;5.928;2022-12-20T06:07:33;101063.13;;;11.47;78.70
66945;BME280;53853;51.982;5.928;2022-12-20T06:10:06;101064.97;;;11.47;78.66
66945;BME280;53853;51.982;5.928;2022-12-20T06:12:47;101066.91;;;11.45;78.40
66945;BME280;53853;51.982;5.928;2022-12-20T06:15:18;101069.44;;;11.46;78.50
66945;BME280;53853;51.982;5.928;2022-12-20T06:17:48;101066.09;;;11.44;78.37
66945;BME280;53853;51.982;5.928;2022-12-20T06:20:21;101056.25;;;11.45;78.28
66945;BME280;53853;51.982;5.928;2022-12-20T06:22:52;101055.41;;;11.44;78.40
66945;BME280;53853;51.982;5.928;2022-12-20T06:25:22;101054.44;;;11.45;78.19
66945;BME280;53853;51.982;5.928;2022-12-20T06:27:53;101048.09;;;11.46;78.24
66945;BME280;53853;51.982;5.928;2022-12-20T06:30:24;101040.09;;;11.46;78.03
66945;BME280;53853;51.982;5.928;2022-12-20T06:33:08;101036.59;;;11.46;78.06
66945;BME280;53853;51.982;5.928;2022-12-20T06:35:41;101023.25;;;11.46;77.98
66945;BME280;53853;51.982;5.928;2022-12-20T06:38:11;101026.88;;;11.45;77.99
66945;BME280;53853;51.982;5.928;2022-12-20T06:40:41;101036.59;;;11.46;77.81
66945;BME280;53853;51.982;5.928;2022-12-20T06:43:11;101034.59;;;11.48;77.82
66945;BME280;53853;51.982;5.928;2022-12-20T06:45:42;101017.59;;;11.49;77.67
66945;BME280;53853;51.982;5.928;2022-12-20T06:48:12;101023.47;;;11.52;77.47
66945;BME280;53853;51.982;5.928;2022-12-20T06:50:47;101013.47;;;11.54;77.68
66945;BME280;53853;51.982;5.928;2022-12-20T06:53:19;101014.34;;;11.55;77.63
66945;BME280;53853;51.982;5.928;2022-12-20T06:55:51;101014.19;;;11.56;77.60
66945;BME280;53853;51.982;5.928;2022-12-20T06:58:22;101018.50;;;11.57;77.41
66945;BME280;53853;51.982;5.928;2022-12-20T07:00:53;101020.19;;;11.58;77.31
66945;BME280;53853;51.982;5.928;2022-12-20T07:03:23;101016.69;;;11.58;77.33
66945;BME280;53853;51.982;5.928;2022-12-20T07:05:56;101019.22;;;11.59;77.19
66945;BME280;53853;51.982;5.928;2022-12-20T07:08:26;101018.50;;;11.57;77.29
66945;BME280;53853;51.982;5.928;2022-12-20T07:10:57;101023.69;;;11.59;77.04
66945;BME280;53853;51.982;5.928;2022-12-20T07:13:31;101037.75;;;11.61;76.74
66945;BME280;53853;51.982;5.928;2022-12-20T07:16:02;101019.91;;;11.62;76.30
66945;BME280;53853;51.982;5.928;2022-12-20T07:18:32;101028.06;;;11.60;76.43
66945;BME280;53853;51.982;5.928;2022-12-20T07:21:06;101030.56;;;11.62;76.34
66945;BME280;53853;51.982;5.928;2022-12-20T07:23:36;101025.22;;;11.62;75.73
66945;BME280;53853;51.982;5.928;2022-12-20T07:26:07;101015.38;;;11.62;75.71
66945;BME280;53853;51.982;5.928;2022-12-20T07:28:38;101034.78;;;11.64;75.13
66945;BME280;53853;51.982;5.928;2022-12-20T07:31:08;101038.13;;;11.66;75.15
66945;BME280;53853;51.982;5.928;2022-12-20T07:33:38;101029.97;;;11.68;75.18
66945;BME280;53853;51.982;5.928;2022-12-20T07:36:12;101033.31;;;11.70;74.45
66945;BME280;53853;51.982;5.928;2022-12-20T07:38:43;101025.16;;;11.71;74.29
66945;BME280;53853;51.982;5.928;2022-12-20T07:41:15;101027.69;;;11.73;74.09
66945;BME280;53853;51.982;5.928;2022-12-20T07:43:45;101033.84;;;11.73;73.87
66945;BME280;53853;51.982;5.928;2022-12-20T07:46:16;101023.88;;;11.75;73.24
66945;BME280;53853;51.982;5.928;2022-12-20T07:48:47;101023.72;;;11.77;73.61
66945;BME280;53853;51.982;5.928;2022-12-20T07:51:23;101022.72;;;11.78;73.51
66945;BME280;53853;51.982;5.928;2022-12-20T07:53:57;101016.38;;;11.79;73.65
66945;BME280;53853;51.982;5.928;2022-12-20T07:56:29;101025.06;;;11.81;73.20
66945;BME280;53853;51.982;5.928;2022-12-20T07:59:02;101030.25;;;11.83;72.44
66945;BME280;53853;51.982;5.928;2022-12-20T08:01:33;101036.13;;;11.86;72.80
66945;BME280;53853;51.982;5.928;2022-12-20T08:04:06;101044.84;;;11.88;72.95
66945;BME280;53853;51.982;5.928;2022-12-20T08:06:40;101046.66;;;11.88;72.87
66945;BME280;53853;51.982;5.928;2022-12-20T08:09:11;101048.19;;;11.90;72.69
66945;BME280;53853;51.982;5.928;2022-12-20T08:11:46;101045.53;;;11.90;73.07
66945;BME280;53853;51.982;5.928;2022-12-20T08:14:18;101049.03;;;11.91;73.10
66945;BME280;53853;51.982;5.928;2022-12-20T08:16:48;101044.53;;;11.91;73.02
66945;BME280;53853;51.982;5.928;2022-12-20T08:19:18;101048.06;;;11.92;73.02
66945;BME280;53853;51.982;5.928;2022-12-20T08:21:51;101052.56;;;11.91;72.88
66945;BME280;53853;51.982;5.928;2022-12-20T08:24:21;101039.91;;;11.93;72.92
66945;BME280;53853;51.982;5.928;2022-12-20T08:26:51;101040.72;;;11.94;73.06
66945;BME280;53853;51.982;5.928;2022-12-20T08:29:22;101042.41;;;11.95;72.85
66945;BME280;53853;51.982;5.928;2022-12-20T08:31:52;101051.41;;;11.94;72.66
66945;BME280;53853;51.982;5.928;2022-12-20T08:34:22;101039.06;;;11.93;72.97
66945;BME280;53853;51.982;5.928;2022-12-20T08:36:55;101038.22;;;11.92;73.47
66945;BME280;53853;51.982;5.928;2022-12-20T08:39:25;101034.00;;;11.90;74.22
66945;BME280;53853;51.982;5.928;2022-12-20T08:41:55;101037.66;;;11.89;74.26
66945;BME280;53853;51.982;5.928;2022-12-20T08:44:25;101035.28;;;11.86;74.37
66945;BME280;53853;51.982;5.928;2022-12-20T08:46:55;101030.97;;;11.85;74.56
66945;BME280;53853;51.982;5.928;2022-12-20T08:49:25;101034.63;;;11.84;74.61
66945;BME280;53853;51.982;5.928;2022-12-20T08:51:58;101033.63;;;11.85;74.53
66945;BME280;53853;51.982;5.928;2022-12-20T08:54:28;101028.28;;;11.85;74.56
66945;BME280;53853;51.982;5.928;2022-12-20T08:56:58;101028.28;;;11.85;74.51
66945;BME280;53853;51.982;5.928;2022-12-20T08:59:28;101031.78;;;11.85;74.55
66945;BME280;53853;51.982;5.928;2022-12-20T09:01:58;101030.09;;;11.84;74.91
66945;BME280;53853;51.982;5.928;2022-12-20T09:04:28;101025.63;;;11.85;74.95
66945;BME280;53853;51.982;5.928;2022-12-20T09:07:01;101027.28;;;11.86;75.28
66945;BME280;53853;51.982;5.928;2022-12-20T09:09:31;101041.66;;;11.85;75.46
66945;BME280;53853;51.982;5.928;2022-12-20T09:12:02;101041.94;;;11.82;76.29
66945;BME280;53853;51.982;5.928;2022-12-20T09:14:33;101029.72;;;11.79;76.79
66945;BME280;53853;51.982;5.928;2022-12-20T09:17:03;101037.22;;;11.75;77.08
66945;BME280;53853;51.982;5.928;2022-12-20T09:19:33;101041.19;;;11.71;77.17
66945;BME280;53853;51.982;5.928;2022-12-20T09:22:06;101039.63;;;11.69;77.62
66945;BME280;53853;51.982;5.928;2022-12-20T09:24:37;101028.59;;;11.64;77.63
66945;BME280;53853;51.982;5.928;2022-12-20T09:27:07;101035.91;;;11.62;78.28
66945;BME280;53853;51.982;5.928;2022-12-20T09:29:37;101034.22;;;11.60;78.32
66945;BME280;53853;51.982;5.928;2022-12-20T09:32:07;101029.19;;;11.57;78.68
66945;BME280;53853;51.982;5.928;2022-12-20T09:34:37;101026.66;;;11.56;78.49
66945;BME280;53853;51.982;5.928;2022-12-20T09:37:10;101029.50;;;11.54;78.79
66945;BME280;53853;51.982;5.928;2022-12-20T09:39:40;101025.16;;;11.53;78.73
66945;BME280;53853;51.982;5.928;2022-12-20T09:42:12;101016.28;;;11.53;78.88
66945;BME280;53853;51.982;5.928;2022-12-20T09:44:43;101018.13;;;11.52;78.94
66945;BME280;53853;51.982;5.928;2022-12-20T09:47:16;101023.31;;;11.54;78.95
66945;BME280;53853;51.982;5.928;2022-12-20T09:49:52;101017.97;;;11.54;78.92
66945;BME280;53853;51.982;5.928;2022-12-20T09:52:33;101020.34;;;11.57;79.10
66945;BME280;53853;51.982;5.928;2022-12-20T09:55:14;101016.69;;;11.58;78.86
66945;BME280;53853;51.982;5.928;2022-12-20T09:58:02;101017.22;;;11.62;78.93
66945;BME280;53853;51.982;5.928;2022-12-20T10:00:37;101011.59;;;11.65;78.78
66945;BME280;53853;51.982;5.928;2022-12-20T10:03:16;101013.94;;;11.68;78.59
66945;BME280;53853;51.982;5.928;2022-12-20T10:05:51;101012.25;;;11.67;78.80
66945;BME280;53853;51.982;5.928;2022-12-20T10:08:36;101014.78;;;11.68;79.00
66945;BME280;53853;51.982;5.928;2022-12-20T10:11:14;101010.41;;;11.67;78.91
66945;BME280;53853;51.982;5.928;2022-12-20T10:13:57;101006.25;;;11.65;79.10
66945;BME280;53853;51.982;5.928;2022-12-20T10:16:41;101003.56;;;11.65;79.06
66945;BME280;53853;51.982;5.928;2022-12-20T10:19:34;101000.22;;;11.63;79.10
66945;BME280;53853;51.982;5.928;2022-12-20T10:22:12;101003.72;;;11.63;79.05
66945;BME280;53853;51.982;5.928;2022-12-20T10:24:52;100992.91;;;11.65;79.01
66945;BME280;53853;51.982;5.928;2022-12-20T10:27:24;101001.72;;;11.65;79.01
66945;BME280;53853;51.982;5.928;2022-12-20T10:29:55;101006.94;;;11.67;78.97
66945;BME280;53853;51.982;5.928;2022-12-20T10:32:27;101009.44;;;11.68;79.49
66945;BME280;53853;51.982;5.928;2022-12-20T10:35:17;101006.09;;;11.66;79.68
66945;BME280;53853;51.982;5.928;2022-12-20T10:37:58;101004.56;;;11.64;80.22
66945;BME280;53853;51.982;5.928;2022-12-20T10:40:33;101005.88;;;11.59;80.35
66945;BME280;53853;51.982;5.928;2022-12-20T10:43:05;101001.66;;;11.57;80.30
66945;BME280;53853;51.982;5.928;2022-12-20T10:45:41;101005.31;;;11.56;80.56
66945;BME280;53853;51.982;5.928;2022-12-20T10:48:28;101001.66;;;11.57;80.61
66945;BME280;53853;51.982;5.928;2022-12-20T10:51:00;100996.47;;;11.55;80.78
66945;BME280;53853;51.982;5.928;2022-12-20T10:53:32;100988.47;;;11.55;80.70
66945;BME280;53853;51.982;5.928;2022-12-20T10:56:18;100987.34;;;11.58;80.73
66945;BME280;53853;51.982;5.928;2022-12-20T10:58:54;100989.00;;;11.59;80.72
66945;BME280;53853;51.982;5.928;2022-12-20T11:01:27;100990.84;;;11.58;80.93
66945;BME280;53853;51.982;5.928;2022-12-20T11:04:00;100987.19;;;11.59;80.67
66945;BME280;53853;51.982;5.928;2022-12-20T11:06:41;100987.03;;;11.61;80.83
66945;BME280;53853;51.982;5.928;2022-12-20T11:09:25;100978.88;;;11.63;80.78
66945;BME280;53853;51.982;5.928;2022-12-20T11:12:03;100972.69;;;11.62;80.90
66945;BME280;53853;51.982;5.928;2022-12-20T11:14:35;100970.16;;;11.60;81.06
66945;BME280;53853;51.982;5.928;2022-12-20T11:17:18;100972.16;;;11.58;81.24
66945;BME280;53853;51.982;5.928;2022-12-20T11:20:07;100972.47;;;11.55;81.35
66945;BME280;53853;51.982;5.928;2022-12-20T11:22:50;100966.28;;;11.55;81.65
66945;BME280;53853;51.982;5.928;2022-12-20T11:25:45;100972.47;;;11.55;81.67
66945;BME280;53853;51.982;5.928;2022-12-20T11:28:36;100958.13;;;11.56;81.61
66945;BME280;53853;51.982;5.928;2022-12-20T11:31:18;100961.47;;;11.58;81.31
66945;BME280;53853;51.982;5.928;2022-12-20T11:34:02;100956.81;;;11.60;81.59
66945;BME280;53853;51.982;5.928;2022-12-20T11:36:55;100958.34;;;11.63;81.38
66945;BME280;53853;51.982;5.928;2022-12-20T11:39:31;100947.53;;;11.65;81.42
66945;BME280;53853;51.982;5.928;2022-12-20T11:42:08;100948.03;;;11.68;81.41
66945;BME280;53853;51.982;5.928;2022-12-20T11:44:52;100944.22;;;11.71;81.45
66945;BME280;53853;51.982;5.928;2022-12-20T11:47:43;100944.22;;;11.71;81.14
66945;BME280;53853;51.982;5.928;2022-12-20T11:50:47;100952.91;;;11.73;81.29
66945;BME280;53853;51.982;5.928;2022-12-20T11:53:25;100950.25;;;11.73;81.24
66945;BME280;53853;51.982;5.928;2022-12-20T11:56:01;100935.91;;;11.74;81.32
66945;BME280;53853;51.982;5.928;2022-12-20T11:58:41;100935.06;;;11.73;81.50
66945;BME280;53853;51.982;5.928;2022-12-20T12:01:17;100932.38;;;11.73;81.43
66945;BME280;53853;51.982;5.928;2022-12-20T12:04:03;100935.75;;;11.75;81.56
66945;BME280;53853;51.982;5.928;2022-12-20T12:06:39;100926.91;;;11.75;81.77
66945;BME280;53853;51.982;5.928;2022-12-20T12:09:19;100925.91;;;11.76;81.72
66945;BME280;53853;51.982;5.928;2022-12-20T12:11:54;100928.44;;;11.77;81.84
66945;BME280;53853;51.982;5.928;2022-12-20T12:14:34;100923.09;;;11.77;81.86
66945;BME280;53853;51.982;5.928;2022-12-20T12:17:16;100927.59;;;11.77;82.16
66945;BME280;53853;51.982;5.928;2022-12-20T12:19:49;100924.94;;;11.77;82.16
66945;BME280;53853;51.982;5.928;2022-12-20T12:22:27;100922.41;;;11.75;82.19
66945;BME280;53853;51.982;5.928;2022-12-20T12:25:00;100922.41;;;11.75;82.34
66945;BME280;53853;51.982;5.928;2022-12-20T12:27:32;100914.41;;;11.75;82.30
66945;BME280;53853;51.982;5.928;2022-12-20T12:30:03;100915.22;;;11.76;82.63
66945;BME280;53853;51.982;5.928;2022-12-20T12:32:40;100916.06;;;11.76;82.37
66945;BME280;53853;51.982;5.928;2022-12-20T12:35:21;100917.75;;;11.77;82.72
66945;BME280;53853;51.982;5.928;2022-12-20T12:38:01;100913.53;;;11.75;82.65
66945;BME280;53853;51.982;5.928;2022-12-20T12:40:59;100912.56;;;11.76;82.66
66945;BME280;53853;51.982;5.928;2022-12-20T12:43:43;100911.88;;;11.74;82.74
66945;BME280;53853;51.982;5.928;2022-12-20T12:46:16;100908.19;;;11.75;82.77
66945;BME280;53853;51.982;5.928;2022-12-20T12:48:55;100903.72;;;11.75;82.69
66945;BME280;53853;51.982;5.928;2022-12-20T12:51:30;100917.22;;;11.74;82.83
66945;BME280;53853;51.982;5.928;2022-12-20T12:54:16;100908.19;;;11.75;82.99
66945;BME280;53853;51.982;5.928;2022-12-20T12:56:48;100910.88;;;11.75;82.94
66945;BME280;53853;51.982;5.928;2022-12-20T12:59:23;100911.56;;;11.77;83.02
66945;BME280;53853;51.982;5.928;2022-12-20T13:01:54;100919.59;;;11.77;83.09
66945;BME280;53853;51.982;5.928;2022-12-20T13:04:58;100918.72;;;11.76;83.00
66945;BME280;53853;51.982;5.928;2022-12-20T13:07:39;100927.59;;;11.77;83.21
66945;BME280;53853;51.982;5.928;2022-12-20T13:13:17;100912.56;;;11.76;83.42
66945;BME280;53853;51.982;5.928;2022-12-20T13:16:03;100908.19;;;11.75;83.53
66945;BME280;53853;51.982;5.928;2022-12-20T13:18:34;100906.41;;;11.75;83.52
66945;BME280;53853;51.982;5.928;2022-12-20T13:21:37;100911.56;;;11.77;83.46
66945;BME280;53853;51.982;5.928;2022-12-20T13:24:46;100907.38;;;11.74;83.42
66945;BME280;53853;51.982;5.928;2022-12-20T13:27:29;100911.03;;;11.73;83.47
66945;BME280;53853;51.982;5.928;2022-12-20T13:33:24;100905.69;;;11.73;83.51
66945;BME280;53853;51.982;5.928;2022-12-20T13:36:30;100902.88;;;11.75;83.65
66945;BME280;53853;51.982;5.928;2022-12-20T13:39:30;100906.41;;;11.75;83.81